createdAt,value
2018-06-25T00:00:16.165Z,16.57
2018-06-25T00:02:44.141Z,20.57
2018-06-25T00:05:11.938Z,15.30
2018-06-25T00:07:44.291Z,17.13
2018-06-25T00:10:12.247Z,19.50
2018-06-25T00:12:40.194Z,15.10
2018-06-25T00:15:15.167Z,18.33
2018-06-25T00:17:43.128Z,16.07
2018-06-25T00:20:11.196Z,17.70
2018-06-25T00:22:39.215Z,16.10
2018-06-25T00:25:07.166Z,23.43
2018-06-25T00:27:35.242Z,18.53
2018-06-25T00:30:03.225Z,28.20
2018-06-25T00:32:31.178Z,14.00
2018-06-25T00:34:59.144Z,17.10
2018-06-25T00:37:27.123Z,23.93
2018-06-25T00:39:55.090Z,17.40
2018-06-25T00:42:23.119Z,19.83
2018-06-25T00:44:50.923Z,20.10
2018-06-25T00:47:19.126Z,21.93
2018-06-25T00:49:47.092Z,21.53
2018-06-25T00:52:15.056Z,24.50
2018-06-25T00:54:43.191Z,21.33
2018-06-25T00:57:11.244Z,20.47
2018-06-25T00:59:49.709Z,19.83
2018-06-25T01:02:18.303Z,26.20
2018-06-25T01:04:46.377Z,37.20
2018-06-25T01:07:14.480Z,34.10
2018-06-25T01:09:42.767Z,33.37
2018-06-25T01:12:10.810Z,28.80
2018-06-25T01:14:38.774Z,25.23
2018-06-25T01:17:07.203Z,26.23
2018-06-25T01:22:10.170Z,23.50
2018-06-25T01:24:38.644Z,23.80
2018-06-25T01:27:09.679Z,23.80
2018-06-25T01:29:39.119Z,31.43
2018-06-25T01:32:07.103Z,27.97
2018-06-25T01:34:35.299Z,27.87
2018-06-25T01:37:03.694Z,26.23
2018-06-25T01:39:31.680Z,31.03
2018-06-25T01:41:59.694Z,28.33
2018-06-25T01:44:27.663Z,41.43
2018-06-25T01:46:55.443Z,46.07
2018-06-25T01:49:23.243Z,88.37
2018-06-25T01:51:51.451Z,80.33
2018-06-25T01:54:19.600Z,69.80
2018-06-25T01:56:47.596Z,58.03
2018-06-25T01:59:15.455Z,59.83
2018-06-25T02:01:43.444Z,47.23
2018-06-25T02:04:11.246Z,32.67
2018-06-25T02:10:11.267Z,44.40
2018-06-25T02:12:39.274Z,59.60
2018-06-25T02:15:07.330Z,70.80
2018-06-25T02:17:35.287Z,84.87
2018-06-25T02:20:03.307Z,85.03
2018-06-25T02:22:31.269Z,80.17
2018-06-25T02:24:59.231Z,76.87
2018-06-25T02:27:27.266Z,64.53
2018-06-25T02:29:55.235Z,59.00
2018-06-25T02:32:23.212Z,58.30
2018-06-25T02:34:51.189Z,66.00
2018-06-25T02:37:19.153Z,81.80
2018-06-25T02:39:47.382Z,71.37
2018-06-25T02:42:15.189Z,70.50
2018-06-25T02:44:43.165Z,79.10
2018-06-25T02:47:11.132Z,85.77
2018-06-25T02:49:38.953Z,80.20
2018-06-25T02:52:07.005Z,69.30
2018-06-25T02:54:34.998Z,79.07
2018-06-25T02:57:03.051Z,73.20
2018-06-25T02:59:30.864Z,61.37
2018-06-25T03:01:58.815Z,70.63
2018-06-25T03:04:26.764Z,82.20
2018-06-25T03:06:54.757Z,85.20
2018-06-25T03:09:22.711Z,83.60
2018-06-25T03:11:50.755Z,84.00
2018-06-25T03:14:18.699Z,89.20
2018-06-25T03:16:46.729Z,78.57
2018-06-25T03:19:14.701Z,62.77
2018-06-25T03:21:42.503Z,53.23
2018-06-25T03:24:10.468Z,74.10
2018-06-25T03:26:38.588Z,48.63
2018-06-25T03:29:06.627Z,67.50
2018-06-25T03:31:34.451Z,94.43
2018-06-25T03:34:02.466Z,93.73
2018-06-25T03:36:30.435Z,83.70
2018-06-25T03:38:58.455Z,89.13
2018-06-25T03:41:26.261Z,103.53
2018-06-25T03:43:54.320Z,99.67
2018-06-25T03:46:22.575Z,105.83
2018-06-25T03:48:50.536Z,54.07
2018-06-25T03:51:18.578Z,41.30
2018-06-25T03:53:46.544Z,49.93
2018-06-25T03:56:14.346Z,56.83
2018-06-25T03:58:42.357Z,41.90
2018-06-25T04:01:10.644Z,47.37
2018-06-25T04:03:38.604Z,81.07
2018-06-25T04:06:06.727Z,66.27
2018-06-25T04:08:34.751Z,60.50
2018-06-25T04:11:02.688Z,44.03
2018-06-25T04:13:30.713Z,54.40
2018-06-25T04:15:58.626Z,57.77
2018-06-25T04:18:26.578Z,66.30
2018-06-25T04:20:54.466Z,74.00
2018-06-25T04:23:23.228Z,69.87
2018-06-25T04:25:51.183Z,48.90
2018-06-25T04:28:19.242Z,44.87
2018-06-25T04:30:47.220Z,32.90
2018-06-25T04:33:15.006Z,60.20
2018-06-25T04:35:43.040Z,46.73
2018-06-25T04:38:11.052Z,59.10
2018-06-25T04:40:38.909Z,53.17
2018-06-25T04:43:07.115Z,48.73
2018-06-25T04:45:35.039Z,54.30
2018-06-25T04:48:03.008Z,38.87
2018-06-25T04:50:31.110Z,40.40
2018-06-25T04:52:59.088Z,60.17
2018-06-25T04:55:27.138Z,74.83
2018-06-25T04:57:54.934Z,69.33
2018-06-25T05:00:22.900Z,84.60
2018-06-25T05:02:50.891Z,79.03
2018-06-25T05:05:18.853Z,80.80
2018-06-25T05:07:46.915Z,66.27
2018-06-25T05:10:14.921Z,60.47
2018-06-25T05:12:43.933Z,57.53
2018-06-25T05:15:11.771Z,67.40
2018-06-25T05:17:39.899Z,69.53
2018-06-25T05:20:07.862Z,61.67
2018-06-25T05:22:35.772Z,67.63
2018-06-25T05:25:03.749Z,65.90
2018-06-25T05:27:31.724Z,53.37
2018-06-25T05:29:59.506Z,48.67
2018-06-25T05:32:28.044Z,45.97
2018-06-25T05:34:56.084Z,54.50
2018-06-25T05:37:24.803Z,48.10
2018-06-25T05:39:52.860Z,73.27
2018-06-25T05:42:22.884Z,73.20
2018-06-25T05:44:51.763Z,51.70
2018-06-25T05:47:20.272Z,53.93
2018-06-25T05:49:48.424Z,44.13
2018-06-25T05:52:16.493Z,45.27
2018-06-25T05:54:44.534Z,39.57
2018-06-25T05:57:13.877Z,44.60
2018-06-25T05:59:42.531Z,42.67
2018-06-25T06:02:10.592Z,43.17
2018-06-25T06:04:38.567Z,50.30
2018-06-25T06:07:06.531Z,41.97
2018-06-25T06:09:34.497Z,50.07
2018-06-25T06:12:02.339Z,47.00
2018-06-25T06:14:30.352Z,47.67
2018-06-25T06:16:58.402Z,56.53
2018-06-25T06:19:26.464Z,46.23
2018-06-25T06:21:54.827Z,42.00
2018-06-25T06:24:22.896Z,42.70
2018-06-25T06:26:50.892Z,41.00
2018-06-25T06:29:18.851Z,35.00
2018-06-25T06:31:46.719Z,32.53
2018-06-25T06:34:14.704Z,30.30
2018-06-25T06:36:42.677Z,26.20
2018-06-25T06:39:13.864Z,25.00
2018-06-25T06:41:42.358Z,24.07
2018-06-25T06:44:10.141Z,28.10
2018-06-25T06:46:38.274Z,27.27
2018-06-25T06:49:06.241Z,28.47
2018-06-25T06:51:34.548Z,23.93
2018-06-25T06:54:02.973Z,23.87
2018-06-25T06:56:31.119Z,30.30
2018-06-25T06:58:59.151Z,34.63
2018-06-25T07:01:27.196Z,47.03
2018-06-25T07:03:55.789Z,37.53
2018-06-25T07:06:23.739Z,37.43
2018-06-25T07:08:51.710Z,29.30
2018-06-25T07:11:19.678Z,25.57
2018-06-25T07:13:47.499Z,32.37
2018-06-25T07:16:15.528Z,24.97
2018-06-25T07:18:43.541Z,21.60
2018-06-25T07:21:11.524Z,26.10
2018-06-25T07:23:40.163Z,32.33
2018-06-25T07:26:08.208Z,31.53
2018-06-25T07:28:36.248Z,27.57
2018-06-25T07:31:04.223Z,33.40
2018-06-25T07:33:32.897Z,29.23
2018-06-25T07:36:00.893Z,28.40
2018-06-25T07:38:28.865Z,28.67
2018-06-25T07:40:56.820Z,27.60
2018-06-25T07:43:24.789Z,33.17
2018-06-25T07:45:53.012Z,35.63
2018-06-25T07:48:27.729Z,33.77
2018-06-25T07:50:55.709Z,31.10
2018-06-25T07:53:23.685Z,36.30
2018-06-25T07:55:51.516Z,39.73
2018-06-25T07:58:19.536Z,44.03
2018-06-25T08:00:48.024Z,40.50
2018-06-25T08:03:15.995Z,37.77
2018-06-25T08:05:43.996Z,32.67
2018-06-25T08:08:11.851Z,36.43
2018-06-25T08:10:39.953Z,39.77
2018-06-25T08:13:07.779Z,35.77
2018-06-25T08:15:35.740Z,37.57
2018-06-25T08:18:03.699Z,40.50
2018-06-25T08:20:31.691Z,36.80
2018-06-25T08:22:59.717Z,33.80
2018-06-25T08:25:27.683Z,32.77
2018-06-25T08:27:55.831Z,28.77
2018-06-25T08:30:23.607Z,26.73
2018-06-25T08:32:51.863Z,32.40
2018-06-25T08:35:19.881Z,25.70
2018-06-25T08:37:48.108Z,31.00
2018-06-25T08:40:16.152Z,26.73
2018-06-25T08:42:44.542Z,19.90
2018-06-25T08:45:12.600Z,27.40
2018-06-25T08:47:40.617Z,21.30
2018-06-25T08:50:08.576Z,32.37
2018-06-25T08:52:36.707Z,22.70
2018-06-25T08:55:04.820Z,21.00
2018-06-25T08:57:32.774Z,19.90
2018-06-25T09:00:00.732Z,18.90
2018-06-25T09:02:29.559Z,21.80
2018-06-25T09:04:57.561Z,24.70
2018-06-25T09:07:25.526Z,20.97
2018-06-25T09:09:53.522Z,17.40
2018-06-25T09:12:21.492Z,28.20
2018-06-25T09:14:49.663Z,20.53
2018-06-25T09:17:17.620Z,15.87
2018-06-25T09:19:45.672Z,14.70
2018-06-25T09:22:14.047Z,13.13
2018-06-25T09:24:41.957Z,13.80
2018-06-25T09:27:09.898Z,12.97
2018-06-25T09:29:37.850Z,15.90
2018-06-25T09:32:05.650Z,21.97
2018-06-25T09:34:39.179Z,17.67
2018-06-25T09:37:07.259Z,15.83
2018-06-25T09:39:35.328Z,17.07
2018-06-25T09:42:03.267Z,21.80
2018-06-25T09:44:31.244Z,22.50
2018-06-25T09:49:40.348Z,15.40
2018-06-25T09:52:08.299Z,19.50
2018-06-25T09:54:36.263Z,16.80
2018-06-25T09:57:04.219Z,16.27
2018-06-25T09:59:32.284Z,18.27
2018-06-25T10:02:00.243Z,19.30
2018-06-25T10:04:28.267Z,18.07
2018-06-25T10:06:56.368Z,17.53
2018-06-25T10:09:24.322Z,20.73
2018-06-25T10:11:52.329Z,19.00
2018-06-25T10:14:20.402Z,19.90
2018-06-25T10:16:48.395Z,18.97
2018-06-25T10:19:16.940Z,16.83
2018-06-25T10:21:45.033Z,19.67
2018-06-25T10:24:13.084Z,18.93
2018-06-25T10:26:41.177Z,11.30
2018-06-25T10:29:09.313Z,21.47
2018-06-25T10:31:37.670Z,12.90
2018-06-25T10:34:05.800Z,19.87
2018-06-25T10:36:33.856Z,15.10
2018-06-25T10:39:02.205Z,12.43
2018-06-25T10:41:30.154Z,17.20
2018-06-25T10:43:58.112Z,21.60
2018-06-25T10:46:25.894Z,11.90
2018-06-25T10:48:53.745Z,11.57
2018-06-25T10:51:21.812Z,12.57
2018-06-25T10:53:49.879Z,15.57
2018-06-25T10:56:17.914Z,10.80
2018-06-25T10:58:45.880Z,13.27
2018-06-25T11:01:14.263Z,13.03
2018-06-25T11:03:42.140Z,9.18
2018-06-25T11:06:10.531Z,9.23
2018-06-25T11:08:39.654Z,14.17
2018-06-25T11:11:07.771Z,11.77
2018-06-25T11:13:35.742Z,22.47
2018-06-25T11:16:04.088Z,22.10
2018-06-25T11:18:32.032Z,17.50
2018-06-25T11:21:00.037Z,17.00
2018-06-25T11:23:27.987Z,19.10
2018-06-25T11:25:55.782Z,18.70
2018-06-25T11:28:24.503Z,17.13
2018-06-25T11:30:52.475Z,15.63
2018-06-25T11:33:20.698Z,13.13
2018-06-25T11:35:48.768Z,14.50
2018-06-25T11:38:16.891Z,13.10
2018-06-25T11:40:44.847Z,15.73
2018-06-25T11:43:13.614Z,10.67
2018-06-25T11:45:42.108Z,13.13
2018-06-25T11:48:10.176Z,14.60
2018-06-25T11:50:38.324Z,13.83
2018-06-25T11:53:06.291Z,17.80
2018-06-25T11:55:34.378Z,14.63
2018-06-25T11:58:02.360Z,12.97
2018-06-25T12:00:30.568Z,16.47
2018-06-25T12:02:58.616Z,13.90
2018-06-25T12:05:26.572Z,23.80
2018-06-25T12:07:54.555Z,18.03
2018-06-25T12:10:22.529Z,9.73
2018-06-25T12:12:50.359Z,13.63
2018-06-25T12:15:18.512Z,11.97
2018-06-25T12:17:46.467Z,8.03
2018-06-25T12:20:14.535Z,15.13
2018-06-25T12:22:42.423Z,15.93
2018-06-25T12:25:10.470Z,8.97
2018-06-25T12:27:38.481Z,13.63
2018-06-25T12:30:06.502Z,24.07
2018-06-25T12:32:35.259Z,12.50
2018-06-25T12:35:03.300Z,18.50
2018-06-25T12:37:31.260Z,15.40
2018-06-25T12:39:59.211Z,12.83
2018-06-25T12:42:27.237Z,16.63
2018-06-25T12:44:55.310Z,19.00
2018-06-25T12:47:23.370Z,14.40
2018-06-25T12:49:51.162Z,10.90
2018-06-25T12:52:18.942Z,10.10
2018-06-25T12:54:46.903Z,14.37
2018-06-25T12:57:14.935Z,21.90
2018-06-25T12:59:42.831Z,13.90
2018-06-25T13:02:10.898Z,12.07
2018-06-25T13:04:38.959Z,213.50
2018-06-25T13:07:06.947Z,22.37
2018-06-25T13:09:34.899Z,10.80
2018-06-25T13:12:02.868Z,16.80
2018-06-25T13:14:30.862Z,11.77
2018-06-25T13:16:58.880Z,16.77
2018-06-25T13:19:26.860Z,12.27
2018-06-25T13:21:54.823Z,9.77
2018-06-25T13:24:22.612Z,17.83
2018-06-25T13:26:52.334Z,11.20
2018-06-25T13:29:20.179Z,15.93
2018-06-25T13:31:48.156Z,22.97
2018-06-25T13:34:16.264Z,8.10
2018-06-25T13:36:44.273Z,13.90
2018-06-25T13:39:12.526Z,15.27
2018-06-25T13:41:42.368Z,9.23
2018-06-25T13:44:10.200Z,10.80
2018-06-25T13:46:38.212Z,13.60
2018-06-25T13:49:06.207Z,11.13
2018-06-25T13:51:34.252Z,13.07
2018-06-25T13:54:02.225Z,12.00
2018-06-25T13:56:30.386Z,11.90
2018-06-25T13:58:58.396Z,21.77
2018-06-25T14:01:26.460Z,10.97
2018-06-25T14:03:54.598Z,125.47
2018-06-25T14:06:22.606Z,56.80
2018-06-25T14:08:50.406Z,12.13
2018-06-25T14:11:18.417Z,12.10
2018-06-25T14:13:46.562Z,8.07
2018-06-25T14:16:14.936Z,14.73
2018-06-25T14:18:42.739Z,12.43
2018-06-25T14:21:10.869Z,12.53
2018-06-25T14:23:43.156Z,11.17
2018-06-25T14:26:11.130Z,9.57
2018-06-25T14:28:39.115Z,10.27
2018-06-25T14:31:12.700Z,10.47
2018-06-25T14:33:41.240Z,13.20
2018-06-25T14:36:09.610Z,11.20
2018-06-25T14:38:37.568Z,7.80
2018-06-25T14:41:05.701Z,13.33
2018-06-25T14:43:34.788Z,23.23
2018-06-25T14:46:03.683Z,7.37
2018-06-25T14:48:32.374Z,17.63
2018-06-25T14:51:00.579Z,7.73
2018-06-25T14:53:28.547Z,9.30
2018-06-25T14:55:56.512Z,10.37
2018-06-25T14:58:24.771Z,8.93
2018-06-25T15:00:52.740Z,11.47
2018-06-25T15:03:20.712Z,14.23
2018-06-25T15:05:48.684Z,20.70
2018-06-25T15:08:16.629Z,11.30
2018-06-25T15:10:44.595Z,11.77
2018-06-25T15:13:12.590Z,94.10
2018-06-25T15:15:40.493Z,20.57
2018-06-25T15:18:08.966Z,18.80
2018-06-25T15:20:36.935Z,13.93
2018-06-25T15:23:04.944Z,17.33
2018-06-25T15:25:33.232Z,18.43
2018-06-25T15:28:01.295Z,15.63
2018-06-25T15:30:29.302Z,19.00
2018-06-25T15:32:57.267Z,16.77
2018-06-25T15:35:25.372Z,26.00
2018-06-25T15:37:53.582Z,17.40
2018-06-25T15:40:21.960Z,13.50
2018-06-25T15:42:50.187Z,19.17
2018-06-25T15:45:18.280Z,11.53
2018-06-25T15:47:46.460Z,15.13
2018-06-25T15:50:14.477Z,17.93
2018-06-25T15:52:42.540Z,12.77
2018-06-25T15:55:10.556Z,14.87
2018-06-25T15:57:38.563Z,23.27
2018-06-25T16:00:06.577Z,21.97
2018-06-25T16:02:34.535Z,14.53
2018-06-25T16:05:02.679Z,27.40
2018-06-25T16:07:30.657Z,13.70
2018-06-25T16:09:58.640Z,22.37
2018-06-25T16:12:26.803Z,17.57
2018-06-25T16:14:54.600Z,21.80
2018-06-25T16:17:22.486Z,15.60
2018-06-25T16:19:50.945Z,15.47
2018-06-25T16:22:18.757Z,14.80
2018-06-25T16:24:46.558Z,19.00
2018-06-25T16:27:15.591Z,11.70
2018-06-25T16:29:43.596Z,15.73
2018-06-25T16:32:12.335Z,13.70
2018-06-25T16:34:40.432Z,7.60
2018-06-25T16:37:08.503Z,22.30
2018-06-25T16:39:36.485Z,21.83
2018-06-25T16:42:04.580Z,15.87
2018-06-25T16:44:32.883Z,19.40
2018-06-25T16:47:00.942Z,10.07
2018-06-25T16:49:28.887Z,11.60
2018-06-25T16:51:56.701Z,8.23
2018-06-25T16:54:24.521Z,13.30
2018-06-25T16:56:52.756Z,7.57
2018-06-25T16:59:20.866Z,16.47
2018-06-25T17:01:48.935Z,12.67
2018-06-25T17:04:17.292Z,12.30
2018-06-25T17:06:45.316Z,22.43
2018-06-25T17:09:13.639Z,13.27
2018-06-25T17:11:42.645Z,9.60
2018-06-25T17:14:11.762Z,9.70
2018-06-25T17:16:39.821Z,21.10
2018-06-25T17:19:08.576Z,21.73
2018-06-25T17:21:37.014Z,13.60
2018-06-25T17:24:05.268Z,9.53
2018-06-25T17:26:33.161Z,12.00
2018-06-25T17:29:01.306Z,16.83
2018-06-25T17:31:29.592Z,10.13
2018-06-25T17:33:57.884Z,11.53
2018-06-25T17:36:26.136Z,8.00
2018-06-25T17:38:54.170Z,7.20
2018-06-25T17:41:22.436Z,7.20
2018-06-25T17:43:50.806Z,9.53
2018-06-25T17:46:18.834Z,6.60
2018-06-25T17:48:46.784Z,15.13
2018-06-25T17:51:14.771Z,9.23
2018-06-25T17:53:43.225Z,12.40
2018-06-25T17:56:11.275Z,15.90
2018-06-25T17:58:40.096Z,11.93
2018-06-25T18:01:08.104Z,18.63
2018-06-25T18:03:36.996Z,20.20
2018-06-25T18:06:05.242Z,42.13
2018-06-25T18:08:33.207Z,22.70
2018-06-25T18:11:01.223Z,25.72
2018-06-25T18:13:29.040Z,84.60
2018-06-25T18:15:57.582Z,23.73
2018-06-25T18:18:25.574Z,19.60
2018-06-25T18:20:54.138Z,19.90
2018-06-25T18:23:22.222Z,20.40
2018-06-25T18:25:50.794Z,23.03
2018-06-25T18:28:18.858Z,17.47
2018-06-25T18:30:46.839Z,20.30
2018-06-25T18:33:14.827Z,21.00
2018-06-25T18:35:42.947Z,17.33
2018-06-25T18:38:10.982Z,22.83
2018-06-25T18:40:38.862Z,30.43
2018-06-25T18:43:06.827Z,23.00
2018-06-25T18:45:34.635Z,26.83
2018-06-25T18:48:02.600Z,24.27
2018-06-25T18:50:30.379Z,22.90
2018-06-25T18:52:58.166Z,22.37
2018-06-25T18:55:26.123Z,24.80
2018-06-25T18:57:54.242Z,22.10
2018-06-25T19:00:22.230Z,26.20
2018-06-25T19:02:50.310Z,21.83
2018-06-25T19:05:18.804Z,21.80
2018-06-25T19:07:47.777Z,28.37
2018-06-25T19:10:16.252Z,17.80
2018-06-25T19:12:44.424Z,25.50
2018-06-25T19:15:12.453Z,30.33
2018-06-25T19:17:44.528Z,20.77
2018-06-25T19:20:12.918Z,26.00
2018-06-25T19:22:40.927Z,23.93
2018-06-25T19:25:08.931Z,24.50
2018-06-25T19:27:36.895Z,32.33
2018-06-25T19:30:04.954Z,22.67
2018-06-25T19:32:32.821Z,33.37
2018-06-25T19:35:03.091Z,29.57
2018-06-25T19:37:31.481Z,22.33
2018-06-25T19:40:01.103Z,28.33
2018-06-25T19:42:29.336Z,24.30
2018-06-25T19:44:57.557Z,29.93
2018-06-25T19:47:25.576Z,26.43
2018-06-25T19:49:53.802Z,32.23
2018-06-25T19:52:21.815Z,28.23
2018-06-25T19:54:49.671Z,26.70
2018-06-25T19:57:19.275Z,35.60
2018-06-25T19:59:47.444Z,29.67
2018-06-25T20:02:15.416Z,27.20
2018-06-25T20:04:43.636Z,26.00
2018-06-25T20:07:11.774Z,26.50
2018-06-25T20:09:40.655Z,23.00
2018-06-25T20:12:08.478Z,31.97
2018-06-25T20:14:36.865Z,23.13
2018-06-25T20:17:05.094Z,42.97
2018-06-25T20:19:33.190Z,28.40
2018-06-25T20:22:01.235Z,31.27
2018-06-25T20:24:29.298Z,29.83
2018-06-25T20:26:57.538Z,30.80
2018-06-25T20:29:25.536Z,27.60
2018-06-25T20:31:53.811Z,31.33
2018-06-25T20:34:23.366Z,37.73
2018-06-25T20:36:51.456Z,29.17
2018-06-25T20:39:19.456Z,29.60
2018-06-25T20:41:47.435Z,44.10
2018-06-25T20:44:15.395Z,34.13
2018-06-25T20:46:43.261Z,38.53
2018-06-25T20:49:11.247Z,30.80
2018-06-25T20:51:39.109Z,30.30
2018-06-25T20:54:07.233Z,32.77
2018-06-25T20:56:35.207Z,34.57
2018-06-25T20:59:03.327Z,37.90
2018-06-25T21:01:31.304Z,36.30
2018-06-25T21:03:59.266Z,34.80
2018-06-25T21:06:27.260Z,28.65
2018-06-25T21:08:55.312Z,36.27
2018-06-25T21:11:23.176Z,32.20
2018-06-25T21:13:51.155Z,32.87
2018-06-25T21:16:19.336Z,35.57
2018-06-25T21:18:47.314Z,37.47
2018-06-25T21:21:15.344Z,34.00
2018-06-25T21:23:43.298Z,33.10
2018-06-25T21:26:11.336Z,42.40
2018-06-25T21:28:39.470Z,34.23
2018-06-25T21:31:07.832Z,36.63
2018-06-25T21:33:35.859Z,51.13
2018-06-25T21:36:03.750Z,38.30
2018-06-25T21:38:31.726Z,32.40
2018-06-25T21:40:59.682Z,34.93
2018-06-25T21:43:27.784Z,41.30
2018-06-25T21:45:55.586Z,48.83
2018-06-25T21:48:23.595Z,36.53
2018-06-25T21:50:51.659Z,37.03
2018-06-25T21:53:19.611Z,33.30
2018-06-25T21:55:47.484Z,43.37
2018-06-25T21:58:15.440Z,34.60
2018-06-25T22:00:47.699Z,34.10
2018-06-25T22:03:16.218Z,43.07
2018-06-25T22:05:44.201Z,39.50
2018-06-25T22:08:12.468Z,39.27
2018-06-25T22:10:40.564Z,48.97
2018-06-25T22:13:08.640Z,36.03
2018-06-25T22:15:36.710Z,41.33
2018-06-25T22:18:05.729Z,37.37
2018-06-25T22:20:33.707Z,44.37
2018-06-25T22:23:01.674Z,41.13
2018-06-25T22:25:29.618Z,38.83
2018-06-25T22:27:57.800Z,28.90
2018-06-25T22:30:25.748Z,42.20
2018-06-25T22:32:53.930Z,36.33
2018-06-25T22:35:22.060Z,32.10
2018-06-25T22:37:51.025Z,39.90
2018-06-25T22:40:19.079Z,43.40
2018-06-25T22:42:48.072Z,38.67
2018-06-25T22:45:16.046Z,33.10
2018-06-25T22:47:44.092Z,41.63
2018-06-25T22:50:13.288Z,41.27
2018-06-25T22:52:41.354Z,42.87
2018-06-25T22:55:09.445Z,32.27
2018-06-25T22:57:37.553Z,46.67
2018-06-25T23:00:05.822Z,47.80
2018-06-25T23:02:33.868Z,34.83
2018-06-25T23:05:01.648Z,36.17
2018-06-25T23:07:29.446Z,38.50
2018-06-25T23:09:57.516Z,40.63
2018-06-25T23:12:25.334Z,43.63
2018-06-25T23:14:53.289Z,43.43
2018-06-25T23:17:21.242Z,48.80
2018-06-25T23:19:49.102Z,48.70
2018-06-25T23:22:17.171Z,59.43
2018-06-25T23:24:45.190Z,46.23
2018-06-25T23:27:13.098Z,44.43
2018-06-25T23:29:41.160Z,55.80
2018-06-25T23:32:08.955Z,46.57
2018-06-25T23:34:36.939Z,40.30
2018-06-25T23:37:05.039Z,48.17
2018-06-25T23:39:33.083Z,49.23
2018-06-25T23:42:01.044Z,46.70
2018-06-25T23:44:28.994Z,39.30
2018-06-25T23:46:57.043Z,53.53
2018-06-25T23:49:24.935Z,38.80
2018-06-25T23:51:52.941Z,46.50
2018-06-25T23:54:20.908Z,49.90
2018-06-25T23:56:48.962Z,39.37
2018-06-25T23:59:17.078Z,46.57
